createdAt,value
2018-09-23T00:01:16.744Z,14.70
2018-09-23T00:03:45.762Z,14.80
2018-09-23T00:06:14.814Z,14.90
2018-09-23T00:08:43.875Z,14.90
2018-09-23T00:11:12.854Z,14.50
2018-09-23T00:13:41.869Z,14.20
2018-09-23T00:16:11.771Z,13.80
2018-09-23T00:18:40.823Z,13.90
2018-09-23T00:21:09.815Z,13.90
2018-09-23T00:23:38.871Z,14.00
2018-09-23T00:26:07.875Z,13.90
2018-09-23T00:28:36.890Z,13.80
2018-09-23T00:31:05.890Z,14.00
2018-09-23T00:33:34.971Z,14.00
2018-09-23T00:36:03.979Z,13.90
2018-09-23T00:38:33.027Z,13.90
2018-09-23T00:41:02.047Z,13.80
2018-09-23T00:43:31.090Z,14.00
2018-09-23T00:46:00.091Z,14.40
2018-09-23T00:48:29.177Z,14.70
2018-09-23T00:50:58.500Z,15.40
2018-09-23T00:53:27.624Z,15.90
2018-09-23T00:55:56.618Z,16.60
2018-09-23T00:58:25.831Z,17.00
2018-09-23T01:00:54.886Z,17.20
2018-09-23T01:03:23.888Z,17.40
2018-09-23T01:05:52.927Z,17.50
2018-09-23T01:08:21.921Z,17.50
2018-09-23T01:10:50.965Z,17.70
2018-09-23T01:13:19.952Z,17.90
2018-09-23T01:15:48.983Z,18.00
2018-09-23T01:18:17.978Z,18.10
2018-09-23T01:20:47.070Z,18.00
2018-09-23T01:23:16.070Z,18.00
2018-09-23T01:25:45.116Z,18.20
2018-09-23T01:28:14.106Z,18.20
2018-09-23T01:30:43.146Z,18.30
2018-09-23T01:33:12.130Z,18.30
2018-09-23T01:35:41.147Z,18.20
2018-09-23T01:38:10.134Z,18.10
2018-09-23T01:40:39.144Z,18.10
2018-09-23T01:43:08.154Z,18.10
2018-09-23T01:45:37.158Z,18.30
2018-09-23T01:48:06.175Z,18.20
2018-09-23T01:50:35.215Z,18.40
2018-09-23T01:53:04.214Z,18.50
2018-09-23T01:55:33.239Z,18.60
2018-09-23T01:58:02.218Z,18.90
2018-09-23T02:00:31.239Z,18.90
2018-09-23T02:03:00.344Z,19.10
2018-09-23T02:05:29.363Z,19.00
2018-09-23T02:07:58.358Z,19.10
2018-09-23T02:10:27.388Z,19.00
2018-09-23T02:12:56.375Z,19.00
2018-09-23T02:15:25.479Z,19.00
2018-09-23T02:17:54.550Z,19.00
2018-09-23T02:20:23.573Z,19.00
2018-09-23T02:22:52.576Z,19.10
2018-09-23T02:25:21.650Z,19.10
2018-09-23T02:27:50.626Z,19.00
2018-09-23T02:30:19.658Z,18.90
2018-09-23T02:32:48.644Z,19.00
2018-09-23T02:35:17.739Z,19.10
2018-09-23T02:37:46.719Z,19.10
2018-09-23T02:40:15.755Z,19.00
2018-09-23T02:42:44.739Z,18.90
2018-09-23T02:45:13.760Z,18.90
2018-09-23T02:47:42.747Z,18.90
2018-09-23T02:50:11.771Z,18.90
2018-09-23T02:52:40.775Z,18.90
2018-09-23T02:55:09.800Z,18.80
2018-09-23T02:57:38.766Z,18.80
2018-09-23T03:00:07.843Z,18.80
2018-09-23T03:02:36.831Z,18.70
2018-09-23T03:05:05.914Z,18.60
2018-09-23T03:07:34.912Z,18.60
2018-09-23T03:10:03.982Z,18.60
2018-09-23T03:12:32.968Z,18.50
2018-09-23T03:15:01.996Z,18.50
2018-09-23T03:17:30.979Z,18.40
2018-09-23T03:19:59.983Z,18.40
2018-09-23T03:22:28.979Z,18.40
2018-09-23T03:24:58.033Z,18.30
2018-09-23T03:27:27.047Z,18.30
2018-09-23T03:29:56.049Z,18.30
2018-09-23T03:32:25.078Z,18.30
2018-09-23T03:34:54.067Z,18.20
2018-09-23T03:37:23.099Z,18.30
2018-09-23T03:39:52.095Z,18.30
2018-09-23T03:42:21.146Z,18.30
2018-09-23T03:44:50.139Z,18.40
2018-09-23T03:47:19.164Z,18.30
2018-09-23T03:49:48.147Z,18.30
2018-09-23T03:52:17.192Z,18.40
2018-09-23T03:54:46.222Z,18.40
2018-09-23T03:57:15.251Z,18.40
2018-09-23T03:59:44.243Z,18.30
2018-09-23T04:02:13.260Z,18.30
2018-09-23T04:04:42.252Z,18.30
2018-09-23T04:07:11.279Z,18.20
2018-09-23T04:09:40.288Z,18.20
2018-09-23T04:12:09.431Z,18.20
2018-09-23T04:14:38.307Z,18.20
2018-09-23T04:17:07.327Z,18.20
2018-09-23T04:19:36.331Z,18.10
2018-09-23T04:22:05.387Z,18.10
2018-09-23T04:24:34.390Z,18.10
2018-09-23T04:27:03.495Z,18.00
2018-09-23T04:29:32.564Z,18.00
2018-09-23T04:32:01.615Z,18.00
2018-09-23T04:34:30.626Z,18.00
2018-09-23T04:36:59.650Z,17.90
2018-09-23T04:39:28.654Z,18.00
2018-09-23T04:41:57.679Z,18.00
2018-09-23T04:44:26.725Z,18.10
2018-09-23T04:46:55.724Z,18.20
2018-09-23T04:49:24.767Z,18.20
2018-09-23T04:51:53.833Z,18.30
2018-09-23T04:54:22.839Z,18.30
2018-09-23T04:56:51.874Z,18.40
2018-09-23T04:59:20.875Z,18.60
2018-09-23T05:01:49.919Z,18.50
2018-09-23T05:04:18.918Z,18.50
2018-09-23T05:06:47.982Z,18.60
2018-09-23T05:09:17.064Z,18.60
2018-09-23T05:11:46.103Z,18.70
2018-09-23T05:14:15.095Z,18.70
2018-09-23T05:16:44.186Z,18.70
2018-09-23T05:19:13.214Z,18.80
2018-09-23T05:21:42.262Z,18.80
2018-09-23T05:24:11.278Z,18.80
2018-09-23T05:26:40.370Z,18.80
2018-09-23T05:29:09.424Z,18.90
2018-09-23T05:31:38.466Z,18.80
2018-09-23T05:34:07.462Z,18.80
2018-09-23T05:36:36.501Z,18.90
2018-09-23T05:39:07.141Z,19.00
2018-09-23T05:41:36.431Z,19.00
2018-09-23T05:44:05.513Z,18.90
2018-09-23T05:46:34.498Z,18.90
2018-09-23T05:49:03.508Z,19.00
2018-09-23T05:51:32.541Z,19.00
2018-09-23T05:54:01.720Z,19.00
2018-09-23T05:56:30.735Z,19.00
2018-09-23T05:58:59.791Z,19.00
2018-09-23T06:01:28.828Z,19.00
2018-09-23T06:03:57.870Z,19.00
2018-09-23T06:06:26.882Z,18.90
2018-09-23T06:08:55.944Z,19.00
2018-09-23T06:11:24.927Z,19.00
2018-09-23T06:13:53.974Z,19.00
2018-09-23T06:16:22.999Z,19.00
2018-09-23T06:18:52.039Z,19.00
2018-09-23T06:21:21.051Z,19.00
2018-09-23T06:23:50.151Z,19.00
2018-09-23T06:26:19.200Z,18.90
2018-09-23T06:28:48.243Z,18.90
2018-09-23T06:31:17.250Z,18.90
2018-09-23T06:33:46.298Z,19.00
2018-09-23T06:36:15.299Z,18.80
2018-09-23T06:38:44.523Z,18.30
2018-09-23T06:41:13.623Z,17.80
2018-09-23T06:43:42.654Z,17.50
2018-09-23T06:46:11.686Z,17.30
2018-09-23T06:48:40.724Z,17.10
2018-09-23T06:51:09.818Z,17.00
2018-09-23T06:53:38.790Z,17.00
2018-09-23T06:56:07.782Z,17.20
2018-09-23T06:58:36.818Z,17.20
2018-09-23T07:01:05.855Z,17.40
2018-09-23T07:03:34.882Z,17.50
2018-09-23T07:06:04.504Z,17.90
2018-09-23T07:08:33.550Z,18.00
2018-09-23T07:11:02.612Z,18.10
2018-09-23T07:13:31.638Z,18.10
2018-09-23T07:16:00.640Z,18.30
2018-09-23T07:18:29.683Z,18.20
2018-09-23T07:20:58.690Z,18.30
2018-09-23T07:23:28.317Z,18.40
2018-09-23T07:25:57.360Z,18.60
2018-09-23T07:28:26.382Z,18.90
2018-09-23T07:30:55.439Z,19.10
2018-09-23T07:33:24.469Z,19.20
2018-09-23T07:35:53.465Z,19.20
2018-09-23T07:38:22.492Z,19.10
2018-09-23T07:40:51.482Z,19.20
2018-09-23T07:43:20.508Z,19.20
2018-09-23T07:45:49.509Z,19.20
2018-09-23T07:48:18.538Z,19.20
2018-09-23T07:50:47.676Z,19.20
2018-09-23T07:53:16.977Z,19.20
2018-09-23T07:55:46.150Z,19.30
2018-09-23T07:58:15.181Z,19.30
2018-09-23T08:00:44.182Z,19.30
2018-09-23T08:03:13.294Z,19.30
2018-09-23T08:05:42.319Z,19.30
2018-09-23T08:08:11.419Z,19.40
2018-09-23T08:10:40.479Z,19.50
2018-09-23T08:13:09.648Z,19.70
2018-09-23T08:15:38.760Z,19.80
2018-09-23T08:18:07.826Z,19.90
2018-09-23T08:20:36.934Z,19.90
2018-09-23T08:23:06.015Z,19.80
2018-09-23T08:25:35.140Z,19.90
2018-09-23T08:28:04.095Z,19.80
2018-09-23T08:30:33.234Z,19.90
2018-09-23T08:33:02.368Z,20.00
2018-09-23T08:35:31.503Z,20.10
2018-09-23T08:38:00.507Z,20.10
2018-09-23T08:40:29.581Z,20.10
2018-09-23T08:42:58.651Z,20.10
2018-09-23T08:45:27.632Z,20.20
2018-09-23T08:47:56.714Z,20.10
2018-09-23T08:50:26.133Z,20.10
2018-09-23T08:52:55.171Z,19.90
2018-09-23T08:55:25.079Z,20.00
2018-09-23T08:57:54.080Z,20.10
2018-09-23T09:00:23.296Z,19.90
2018-09-23T09:02:52.883Z,19.90
2018-09-23T09:05:21.920Z,19.90
2018-09-23T09:07:51.101Z,19.90
2018-09-23T09:10:20.076Z,19.90
2018-09-23T09:12:49.080Z,19.90
2018-09-23T09:15:18.406Z,20.00
2018-09-23T09:17:47.411Z,20.00
2018-09-23T09:20:16.471Z,20.10
2018-09-23T09:22:45.562Z,20.10
2018-09-23T09:25:14.658Z,20.10
2018-09-23T09:27:43.678Z,20.10
2018-09-23T09:30:12.693Z,20.20
2018-09-23T09:32:41.715Z,20.20
2018-09-23T09:35:10.834Z,20.30
2018-09-23T09:37:39.887Z,20.30
2018-09-23T09:40:09.036Z,20.30
2018-09-23T09:42:38.064Z,20.40
2018-09-23T09:45:07.166Z,20.60
2018-09-23T09:47:36.156Z,20.70
2018-09-23T09:50:05.199Z,20.80
2018-09-23T09:52:34.367Z,20.80
2018-09-23T09:55:03.417Z,20.70
2018-09-23T09:57:32.424Z,20.90
2018-09-23T10:00:01.438Z,20.80
2018-09-23T10:02:30.530Z,20.90
2018-09-23T10:04:59.575Z,21.10
2018-09-23T10:07:28.580Z,21.20
2018-09-23T10:09:57.596Z,21.30
2018-09-23T10:12:26.618Z,21.30
2018-09-23T10:14:55.699Z,21.40
2018-09-23T10:17:24.690Z,21.40
2018-09-23T10:19:53.744Z,21.40
2018-09-23T10:22:22.771Z,21.40
2018-09-23T10:24:51.811Z,21.50
2018-09-23T10:27:20.931Z,22.00
2018-09-23T10:29:49.959Z,22.60
2018-09-23T10:32:18.975Z,23.40
2018-09-23T10:34:48.035Z,23.80
2018-09-23T10:37:17.035Z,24.30
2018-09-23T10:39:46.064Z,24.70
2018-09-23T10:42:15.064Z,23.80
2018-09-23T10:44:44.239Z,24.50
2018-09-23T10:47:13.244Z,23.90
2018-09-23T10:49:42.498Z,24.10
2018-09-23T10:52:11.599Z,24.00
2018-09-23T10:54:40.631Z,24.20
2018-09-23T10:57:09.642Z,24.10
2018-09-23T10:59:38.738Z,23.70
2018-09-23T11:02:07.799Z,23.40
2018-09-23T11:04:36.912Z,23.80
2018-09-23T11:07:06.063Z,23.80
2018-09-23T11:09:35.087Z,23.60
2018-09-23T11:12:04.154Z,23.30
2018-09-23T11:14:33.169Z,23.00
2018-09-23T11:17:02.251Z,23.10
2018-09-23T11:19:31.264Z,23.30
2018-09-23T11:22:00.314Z,23.40
2018-09-23T11:24:29.316Z,23.30
2018-09-23T11:26:58.366Z,23.60
2018-09-23T11:29:27.375Z,23.50
2018-09-23T11:31:56.411Z,23.10
2018-09-23T11:34:25.418Z,23.20
2018-09-23T11:36:54.450Z,23.40
2018-09-23T11:39:23.477Z,23.50
2018-09-23T11:41:52.537Z,23.60
2018-09-23T11:44:21.544Z,23.20
2018-09-23T11:46:50.615Z,23.30
2018-09-23T11:49:19.635Z,23.10
2018-09-23T11:51:48.679Z,23.10
2018-09-23T11:54:17.686Z,23.20
2018-09-23T11:56:46.727Z,23.00
2018-09-23T11:59:15.761Z,22.80
2018-09-23T12:01:44.813Z,22.90
2018-09-23T12:04:13.859Z,22.90
2018-09-23T12:06:42.892Z,23.10
2018-09-23T12:09:13.440Z,23.10
2018-09-23T12:11:42.476Z,23.00
2018-09-23T12:14:12.025Z,23.00
2018-09-23T12:16:41.108Z,22.80
2018-09-23T12:19:10.130Z,22.70
2018-09-23T12:21:39.225Z,22.60
2018-09-23T12:24:08.255Z,22.70
2018-09-23T12:26:37.307Z,22.80
2018-09-23T12:29:06.497Z,22.90
2018-09-23T12:31:36.558Z,22.90
2018-09-23T12:34:05.635Z,22.90
2018-09-23T12:36:35.299Z,23.00
2018-09-23T12:39:06.213Z,23.10
2018-09-23T12:41:35.343Z,23.20
2018-09-23T12:44:04.469Z,23.20
2018-09-23T12:46:33.627Z,23.40
2018-09-23T12:49:02.776Z,23.70
2018-09-23T12:51:31.885Z,24.00
2018-09-23T12:54:00.922Z,24.20
2018-09-23T12:56:29.968Z,24.10
2018-09-23T12:58:58.972Z,24.20
2018-09-23T13:01:28.035Z,24.20
2018-09-23T13:03:57.044Z,24.10
2018-09-23T13:06:26.134Z,24.00
2018-09-23T13:08:55.156Z,23.90
2018-09-23T13:11:24.195Z,23.90
2018-09-23T13:13:53.193Z,23.60
2018-09-23T13:16:22.342Z,23.70
2018-09-23T13:18:51.339Z,23.80
2018-09-23T13:21:20.366Z,24.00
2018-09-23T13:23:49.411Z,24.20
2018-09-23T13:26:18.467Z,24.00
2018-09-23T13:28:47.596Z,23.80
2018-09-23T13:31:16.655Z,23.60
2018-09-23T13:33:45.668Z,23.50
2018-09-23T13:36:14.692Z,23.60
2018-09-23T13:38:43.726Z,23.50
2018-09-23T13:41:12.786Z,23.50
2018-09-23T13:43:41.838Z,23.40
2018-09-23T13:46:10.868Z,23.40
2018-09-23T13:48:39.879Z,23.20
2018-09-23T13:51:09.031Z,23.10
2018-09-23T13:53:38.032Z,23.30
2018-09-23T13:56:07.070Z,23.40
2018-09-23T13:58:36.169Z,23.30
2018-09-23T14:01:05.275Z,23.30
2018-09-23T14:03:34.424Z,23.30
2018-09-23T14:06:03.468Z,23.30
2018-09-23T14:08:32.471Z,23.30
2018-09-23T14:11:01.590Z,23.30
2018-09-23T14:13:30.599Z,23.30
2018-09-23T14:15:59.830Z,23.30
2018-09-23T14:18:28.848Z,23.20
2018-09-23T14:20:57.895Z,23.20
2018-09-23T14:23:26.951Z,23.30
2018-09-23T14:25:55.997Z,23.40
2018-09-23T14:28:24.995Z,23.40
2018-09-23T14:30:54.022Z,23.40
2018-09-23T14:33:23.078Z,23.40
2018-09-23T14:35:52.115Z,23.40
2018-09-23T14:38:21.120Z,23.30
2018-09-23T14:40:50.219Z,23.40
2018-09-23T14:43:19.216Z,23.40
2018-09-23T14:45:48.257Z,23.40
2018-09-23T14:48:17.263Z,23.50
2018-09-23T14:50:46.317Z,23.50
2018-09-23T14:53:15.367Z,23.40
2018-09-23T14:55:44.440Z,23.30
2018-09-23T14:58:13.489Z,23.30
2018-09-23T15:00:42.498Z,23.40
2018-09-23T15:03:11.544Z,23.40
2018-09-23T15:05:40.535Z,23.30
2018-09-23T15:08:09.591Z,23.30
2018-09-23T15:10:38.603Z,23.30
2018-09-23T15:13:07.701Z,23.30
2018-09-23T15:15:36.716Z,23.30
2018-09-23T15:18:05.854Z,23.30
2018-09-23T15:20:34.863Z,23.30
2018-09-23T15:23:03.941Z,23.30
2018-09-23T15:25:32.951Z,23.30
2018-09-23T15:28:02.105Z,23.30
2018-09-23T15:30:31.106Z,23.30
2018-09-23T15:33:00.199Z,23.30
2018-09-23T15:35:29.191Z,23.40
2018-09-23T15:37:58.251Z,23.30
2018-09-23T15:40:27.258Z,23.40
2018-09-23T15:42:56.286Z,23.50
2018-09-23T15:45:25.310Z,23.60
2018-09-23T15:47:54.350Z,23.60
2018-09-23T15:50:23.369Z,23.60
2018-09-23T15:52:52.512Z,23.60
2018-09-23T15:55:21.575Z,23.60
2018-09-23T15:57:50.660Z,23.60
2018-09-23T16:00:19.654Z,23.60
2018-09-23T16:02:48.702Z,23.60
2018-09-23T16:05:17.863Z,23.60
2018-09-23T16:07:46.883Z,23.60
2018-09-23T16:10:15.908Z,23.50
2018-09-23T16:12:44.950Z,23.50
2018-09-23T16:15:13.956Z,23.40
2018-09-23T16:17:42.995Z,23.50
2018-09-23T16:20:12.010Z,23.50
2018-09-23T16:22:41.047Z,23.50
2018-09-23T16:25:10.050Z,23.50
2018-09-23T16:27:39.083Z,23.50
2018-09-23T16:30:08.128Z,23.50
2018-09-23T16:32:37.174Z,23.60
2018-09-23T16:35:06.267Z,23.70
2018-09-23T16:37:35.383Z,23.80
2018-09-23T16:40:04.530Z,23.80
2018-09-23T16:42:33.658Z,23.80
2018-09-23T16:45:02.773Z,23.80
2018-09-23T16:47:31.856Z,23.80
2018-09-23T16:50:01.544Z,23.80
2018-09-23T16:52:30.592Z,23.80
2018-09-23T16:54:59.769Z,23.80
2018-09-23T16:57:28.812Z,23.80
2018-09-23T16:59:57.875Z,23.80
2018-09-23T17:02:26.895Z,23.80
2018-09-23T17:04:55.937Z,23.80
2018-09-23T17:07:24.972Z,23.80
2018-09-23T17:09:54.045Z,23.90
2018-09-23T17:12:23.055Z,23.80
2018-09-23T17:14:52.128Z,23.80
2018-09-23T17:17:21.151Z,23.80
2018-09-23T17:19:50.230Z,23.80
2018-09-23T17:22:19.291Z,23.90
2018-09-23T17:24:48.340Z,23.80
2018-09-23T17:27:17.338Z,23.80
2018-09-23T17:29:46.419Z,23.70
2018-09-23T17:32:15.440Z,23.70
2018-09-23T17:34:44.502Z,23.70
2018-09-23T17:37:13.512Z,23.60
2018-09-23T17:39:42.543Z,23.60
2018-09-23T17:42:11.559Z,23.70
2018-09-23T17:44:40.591Z,23.70
2018-09-23T17:47:09.599Z,23.50
2018-09-23T17:49:38.648Z,23.40
2018-09-23T17:52:07.677Z,23.30
2018-09-23T17:54:36.742Z,22.20
2018-09-23T17:57:05.754Z,20.80
2018-09-23T17:59:34.786Z,19.60
2018-09-23T18:02:03.887Z,18.00
2018-09-23T18:04:32.850Z,17.10
2018-09-23T18:07:01.885Z,16.80
2018-09-23T18:09:30.931Z,16.70
2018-09-23T18:11:59.948Z,16.30
2018-09-23T18:14:28.963Z,16.10
2018-09-23T18:16:57.979Z,15.60
2018-09-23T18:19:27.021Z,15.30
2018-09-23T18:21:56.051Z,15.20
2018-09-23T18:24:25.079Z,15.10
2018-09-23T18:26:54.090Z,15.10
2018-09-23T18:29:23.186Z,15.00
2018-09-23T18:31:52.235Z,14.90
2018-09-23T18:34:21.274Z,14.70
2018-09-23T18:36:50.277Z,14.90
2018-09-23T18:39:19.309Z,14.90
2018-09-23T18:41:48.339Z,15.00
2018-09-23T18:44:17.445Z,15.00
2018-09-23T18:46:46.517Z,15.20
2018-09-23T18:49:15.549Z,15.20
2018-09-23T18:51:44.587Z,15.30
2018-09-23T18:54:18.978Z,15.30
2018-09-23T18:56:48.028Z,15.30
2018-09-23T18:59:17.058Z,15.20
2018-09-23T19:01:46.110Z,15.20
2018-09-23T19:04:15.160Z,15.10
2018-09-23T19:06:44.216Z,15.00
2018-09-23T19:09:13.288Z,15.00
2018-09-23T19:11:42.378Z,15.10
2018-09-23T19:14:11.396Z,15.00
2018-09-23T19:16:40.478Z,15.00
2018-09-23T19:19:09.543Z,14.90
2018-09-23T19:21:38.577Z,14.90
2018-09-23T19:24:07.600Z,15.00
2018-09-23T19:26:36.624Z,14.90
2018-09-23T19:29:05.667Z,14.90
2018-09-23T19:31:34.889Z,14.90
2018-09-23T19:34:04.162Z,14.90
2018-09-23T19:36:34.313Z,14.90
2018-09-23T19:39:04.445Z,14.80
2018-09-23T19:41:34.452Z,14.80
2018-09-23T19:44:03.766Z,14.80
2018-09-23T19:46:32.827Z,14.80
2018-09-23T19:49:01.838Z,14.90
2018-09-23T19:51:30.851Z,15.00
2018-09-23T19:53:59.940Z,15.00
2018-09-23T19:56:28.991Z,15.00
2018-09-23T19:58:57.987Z,14.90
2018-09-23T20:01:27.043Z,14.80
2018-09-23T20:03:56.046Z,14.70
2018-09-23T20:06:25.130Z,14.70
2018-09-23T20:08:54.132Z,14.60
2018-09-23T20:11:23.175Z,14.40
2018-09-23T20:13:52.197Z,14.30
2018-09-23T20:16:21.206Z,14.20
2018-09-23T20:18:50.215Z,14.00
2018-09-23T20:21:19.239Z,13.90
2018-09-23T20:23:48.255Z,13.90
2018-09-23T20:26:17.285Z,13.80
2018-09-23T20:28:46.296Z,13.70
2018-09-23T20:31:15.371Z,13.70
2018-09-23T20:33:44.382Z,13.70
2018-09-23T20:36:13.398Z,13.70
2018-09-23T20:38:42.477Z,13.70
2018-09-23T20:41:11.467Z,13.60
2018-09-23T20:43:40.534Z,13.70
2018-09-23T20:46:09.626Z,13.80
2018-09-23T20:48:38.651Z,13.70
2018-09-23T20:51:07.730Z,13.60
2018-09-23T20:53:36.810Z,13.60
2018-09-23T20:56:05.922Z,13.60
2018-09-23T20:58:34.976Z,13.60
2018-09-23T21:01:04.124Z,13.50
2018-09-23T21:03:38.883Z,13.60
2018-09-23T21:06:13.423Z,13.50
2018-09-23T21:08:47.971Z,13.50
2018-09-23T21:11:22.655Z,13.40
2018-09-23T21:13:57.507Z,13.40
2018-09-23T21:16:33.155Z,13.40
2018-09-23T21:19:08.423Z,13.30
2018-09-23T21:21:43.124Z,13.40
2018-09-23T21:24:17.615Z,13.30
2018-09-23T21:26:52.978Z,13.30
2018-09-23T21:29:27.681Z,13.30
2018-09-23T21:32:02.474Z,13.30
2018-09-23T21:34:37.292Z,13.20
2018-09-23T21:37:11.923Z,13.10
2018-09-23T21:39:46.560Z,13.20
2018-09-23T21:42:21.302Z,13.40
2018-09-23T21:44:55.775Z,13.60
2018-09-23T21:47:30.407Z,13.60
2018-09-23T21:50:05.171Z,13.40
2018-09-23T21:52:39.724Z,13.50
2018-09-23T21:55:14.478Z,13.40
2018-09-23T21:57:49.051Z,13.30
2018-09-23T22:00:27.855Z,13.30
2018-09-23T22:03:02.567Z,13.40
2018-09-23T22:05:37.427Z,13.30
2018-09-23T22:08:12.622Z,13.20
2018-09-23T22:10:47.312Z,13.20
2018-09-23T22:13:22.018Z,13.20
2018-09-23T22:15:56.786Z,13.10
2018-09-23T22:18:31.351Z,13.20
2018-09-23T22:21:06.107Z,13.10
2018-09-23T22:23:41.826Z,13.20
2018-09-23T22:26:16.319Z,13.20
2018-09-23T22:28:50.999Z,13.20
2018-09-23T22:31:25.660Z,13.20
2018-09-23T22:34:00.309Z,13.20
2018-09-23T22:36:34.985Z,13.10
2018-09-23T22:39:09.654Z,13.10
2018-09-23T22:41:44.275Z,13.10
2018-09-23T22:44:18.856Z,13.00
2018-09-23T22:46:53.428Z,13.20
2018-09-23T22:49:28.158Z,12.90
2018-09-23T22:52:02.766Z,12.80
2018-09-23T22:54:37.570Z,12.90
2018-09-23T22:57:12.335Z,12.90
2018-09-23T22:59:47.445Z,12.80
2018-09-23T23:02:22.271Z,12.90
2018-09-23T23:04:57.082Z,12.80
2018-09-23T23:07:31.750Z,12.70
2018-09-23T23:10:06.647Z,12.70
2018-09-23T23:12:41.388Z,12.80
2018-09-23T23:15:16.195Z,12.80
2018-09-23T23:17:50.685Z,12.80
2018-09-23T23:20:25.147Z,12.80
2018-09-23T23:22:59.658Z,12.60
2018-09-23T23:25:34.275Z,12.60
2018-09-23T23:28:08.854Z,12.70
2018-09-23T23:30:43.552Z,12.70
2018-09-23T23:33:18.271Z,12.70
2018-09-23T23:35:52.858Z,12.50
2018-09-23T23:38:27.603Z,12.50
2018-09-23T23:41:02.106Z,12.60
2018-09-23T23:43:36.719Z,12.50
2018-09-23T23:46:11.386Z,12.50
2018-09-23T23:48:45.892Z,12.50
2018-09-23T23:51:20.600Z,12.50
2018-09-23T23:53:55.244Z,12.50
2018-09-23T23:56:29.961Z,12.50
2018-09-23T23:59:04.650Z,12.50
